Briefing drone pour Chabeuil

Rechercher une autre localisation

Conditions de vol :


Nous sommes le : Mercredi 02 décembre 2020
Il est 13:17 UTC (14:17 LT)

Lever de soleil : 06:32 UTC (07:32 LT)
Coucher de soleil : 16:26 UTC (17:26 LT)

Météo

L'essentiel des conditions de vol

VIGILANCE MÉTÉO FRANCE - Drôme (26)
Pas de vigilances particulieres
CARTES DES FRONTS
METAR de LFLU
LFLU 021300Z AUTO 01018KT 9999 BKN023 OVC028 05/02 Q1011

Date d'émission: 02/12/2020
Heure d'émission: 13:00 UTC
Vent: 010° pour 18 KT (33 km/h)
Visibilité horizontale: > 10 km
Plafond :
- Nuages morcelés à 2300ft (701m)
- Couvert à 2800ft (853m)
Température: 5 °C
Point de rosée: 2 °C
Humidité: 81%
Pression (QNH): 1011 hPa
Prévision 24h pour Valence (6 km)
Vent : 14° pour 1 KT (4 km/h)
Temperature Maxi: 3 °C
Temperature Min: 3 °C
Humidité : 79%
Condition : Ciel dégagé



Warning: count(): Parameter must be an array or an object that implements Countable in /homepages/6/d509196549/htdocs/droneoxygene/briefing.php on line 743
WEBCAM POUR CHABEUIL

Réglementation

Voler en sécurité

CARTES AERONAUTIQUE 1/500.000
CARTES VAC (LFLU)
SUP AIP




Chargement des AIP...
NOTAM (CHABEUIL + Terrain à proximité / FIR )




Chargement des NOTAMS...
CONTACT PREFECTURE 26
Drôme (26) : ddt-sdsr@drome.gouv.fr


Avertissement : Les données mises à disposition sont indicatives. Oxygène Drone ne pourra être tenu responsable de dégâts causés aux biens et aux personnes.